Terminal Aerodrome Forecast
Issued by NWS St Louis, MO

Home | Current Version | Previous Version | Text Only | Print | Product List | Glossary On
Versions: 1 2 3 4 5 6 7 8 9 10 11 12 13 14 15 16 17 18 19 20 21 22 23 24 25 26 27 28 29 30 31
000
FTUS43 KLSX 070259 AAA
TAFSTL
TAF AMD
KSTL 070259Z 0703/0806 18010KT P6SM SCT050 BKN250
     FM070600 22008KT 5SM -SHRA VCTS BKN040CB
     FM071200 26008KT 5SM -SHRA BR VCTS BKN030CB
     FM071500 32010KT 5SM -RA BR OVC010
     FM072000 VRB05KT P6SM VCTS SCT012CB BKN020
     FM080200 33010KT P6SM VCSH SCT008 BKN020=

USA.gov is the U.S. government's official web portal to all federal, state and local government web resources and services.